Station Historical Data
Daily Summary for February 18, 2018 Units:  English    Metric   Both
« Previous Day
Next Day »
Daily Weekly Monthly Yearly Custom
  High: Low: Average:
Temperature: 35.9 °F 27.4 °F 30.2 °F
Dew Point: 26.4 °F 21.7 °F 24.2 °F
Humidity: 89% 60% 79%
Wind Speed: 10.0mph 0.0mph 4.2mph
Wind Gust: 16.0mph - -
Wind- - SW
Pressure: 30.42 in 30.01 in -
Precipitation: 0.00 in    
Historical Graphs
 
 
Tabular Data for February 18, 2018
Time Temperature Dew Point Pressure Wind Wind Speed Wind Gust Humidity Rainfall Rate (Hourly)
00:04 27.5 °F 23.9 °F 30.01 in WSW 3.0 mph 6.0 mph 86% 0.00 in
00:09 27.4 °F 23.8 °F 30.01 in West 3.0 mph 5.0 mph 86% 0.00 in
00:14 27.4 °F 23.8 °F 30.01 in West 1.0 mph 5.0 mph 86% 0.00 in
00:19 27.5 °F 23.9 °F 30.01 in WSW 2.0 mph 5.0 mph 86% 0.00 in
00:24 27.5 °F 23.9 °F 30.01 in WSW 2.0 mph 5.0 mph 86% 0.00 in
00:29 27.5 °F 23.9 °F 30.01 in WSW 2.0 mph 5.0 mph 86% 0.00 in
00:34 27.5 °F 23.9 °F 30.01 in WSW 2.0 mph 5.0 mph 86% 0.00 in
00:39 27.6 °F 24.0 °F 30.01 in WSW 3.0 mph 6.0 mph 86% 0.00 in
00:44 27.7 °F 24.1 °F 30.02 in WSW 3.0 mph 7.0 mph 86% 0.00 in
00:49 27.7 °F 24.1 °F 30.02 in SW 3.0 mph 7.0 mph 86% 0.00 in
00:54 27.7 °F 24.1 °F 30.02 in WSW 3.0 mph 6.0 mph 86% 0.00 in
00:59 27.6 °F 24.0 °F 30.02 in WSW 3.0 mph 7.0 mph 86% 0.00 in
01:05 27.6 °F 24.0 °F 30.02 in WSW 3.0 mph 6.0 mph 86% 0.00 in
01:10 27.7 °F 24.1 °F 30.03 in WSW 3.0 mph 7.0 mph 86% 0.00 in
01:15 27.9 °F 24.3 °F 30.03 in West 4.0 mph 6.0 mph 86% 0.00 in
01:20 28.0 °F 24.4 °F 30.03 in WSW 3.0 mph 10.0 mph 86% 0.00 in
01:25 28.2 °F 24.6 °F 30.03 in WSW 5.0 mph 7.0 mph 86% 0.00 in
01:30 28.3 °F 24.6 °F 30.04 in WNW 4.0 mph 8.0 mph 86% 0.00 in
01:35 28.5 °F 24.8 °F 30.04 in WSW 8.0 mph 10.0 mph 86% 0.00 in
01:40 28.6 °F 24.7 °F 30.04 in West 6.0 mph 10.0 mph 85% 0.00 in
01:45 28.7 °F 24.8 °F 30.04 in WSW 6.0 mph 10.0 mph 85% 0.00 in
01:50 28.8 °F 24.9 °F 30.04 in WSW 6.0 mph 13.0 mph 85% 0.00 in
01:55 28.8 °F 24.9 °F 30.05 in WSW 7.0 mph 13.0 mph 85% 0.00 in
02:00 28.8 °F 24.9 °F 30.05 in WSW 7.0 mph 13.0 mph 85% 0.00 in
02:05 28.7 °F 24.8 °F 30.06 in WSW 7.0 mph 14.0 mph 85% 0.00 in
02:10 28.7 °F 24.8 °F 30.06 in WSW 7.0 mph 14.0 mph 85% 0.00 in
02:15 28.7 °F 24.8 °F 30.07 in WSW 6.0 mph 14.0 mph 85% 0.00 in
02:20 28.7 °F 24.8 °F 30.07 in WSW 6.0 mph 12.0 mph 85% 0.00 in
02:25 28.7 °F 24.8 °F 30.07 in WSW 7.0 mph 11.0 mph 85% 0.00 in
02:30 28.8 °F 24.9 °F 30.08 in West 4.0 mph 10.0 mph 85% 0.00 in
02:35 28.8 °F 24.9 °F 30.08 in WSW 7.0 mph 9.0 mph 85% 0.00 in
02:40 28.9 °F 25.0 °F 30.08 in WSW 10.0 mph 15.0 mph 85% 0.00 in
02:45 29.0 °F 25.1 °F 30.08 in SW 3.0 mph 11.0 mph 85% 0.00 in
02:50 29.0 °F 25.1 °F 30.08 in West 4.0 mph 11.0 mph 85% 0.00 in
02:55 29.1 °F 25.2 °F 30.08 in WSW 6.0 mph 11.0 mph 85% 0.00 in
03:00 29.0 °F 25.1 °F 30.08 in WSW 6.0 mph 11.0 mph 85% 0.00 in
03:05 28.8 °F 24.9 °F 30.08 in WSW 5.0 mph 11.0 mph 85% 0.00 in
03:10 28.6 °F 24.7 °F 30.08 in WSW 5.0 mph 11.0 mph 85% 0.00 in
03:15 28.5 °F 24.6 °F 30.09 in WSW 5.0 mph 10.0 mph 85% 0.00 in
03:20 28.3 °F 24.4 °F 30.09 in WSW 5.0 mph 10.0 mph 85% 0.00 in
03:25 28.2 °F 24.3 °F 30.09 in SW 6.0 mph 13.0 mph 85% 0.00 in
03:30 28.1 °F 24.5 °F 30.10 in WSW 6.0 mph 13.0 mph 86% 0.00 in
03:35 27.9 °F 24.3 °F 30.10 in WSW 5.0 mph 13.0 mph 86% 0.00 in
03:40 27.9 °F 24.3 °F 30.11 in SSW 8.0 mph 11.0 mph 86% 0.00 in
03:45 27.9 °F 24.3 °F 30.11 in West 7.0 mph 12.0 mph 86% 0.00 in
03:50 27.9 °F 24.5 °F 30.12 in SW 5.0 mph 11.0 mph 87% 0.00 in
03:55 27.8 °F 24.4 °F 30.12 in WSW 7.0 mph 12.0 mph 87% 0.00 in
04:00 27.9 °F 24.5 °F 30.12 in WSW 6.0 mph 12.0 mph 87% 0.00 in
04:05 27.9 °F 24.5 °F 30.13 in WSW 6.0 mph 13.0 mph 87% 0.00 in
04:10 27.9 °F 24.5 °F 30.13 in SW 6.0 mph 14.0 mph 87% 0.00 in
04:15 27.9 °F 24.5 °F 30.14 in WSW 6.0 mph 14.0 mph 87% 0.00 in
04:25 28.0 °F 24.9 °F 30.15 in West 4.0 mph 12.0 mph 88% 0.00 in
04:30 28.1 °F 25.0 °F 30.16 in WSW 6.0 mph 11.0 mph 88% 0.00 in
04:35 28.2 °F 25.1 °F 30.16 in West 3.0 mph 10.0 mph 88% 0.00 in
04:40 28.3 °F 25.2 °F 30.16 in WSW 8.0 mph 11.0 mph 88% 0.00 in
04:45 28.2 °F 25.1 °F 30.17 in WSW 6.0 mph 14.0 mph 88% 0.00 in
04:50 28.2 °F 25.1 °F 30.17 in WSW 6.0 mph 14.0 mph 88% 0.00 in
04:55 28.1 °F 25.0 °F 30.17 in WSW 9.0 mph 12.0 mph 88% 0.00 in
05:00 28.1 °F 25.0 °F 30.18 in SW 7.0 mph 11.0 mph 88% 0.00 in
05:05 28.0 °F 24.9 °F 30.18 in WSW 9.0 mph 12.0 mph 88% 0.00 in
05:10 27.9 °F 24.8 °F 30.19 in SW 4.0 mph 12.0 mph 88% 0.00 in
05:15 27.9 °F 24.8 °F 30.19 in WSW 6.0 mph 12.0 mph 88% 0.00 in
05:20 27.9 °F 24.8 °F 30.20 in WSW 6.0 mph 11.0 mph 88% 0.00 in
05:25 27.9 °F 24.8 °F 30.20 in WSW 6.0 mph 12.0 mph 88% 0.00 in
05:29 27.8 °F 24.7 °F 30.20 in West 5.0 mph 10.0 mph 88% 0.00 in
05:34 27.8 °F 24.7 °F 30.20 in WSW 4.0 mph 12.0 mph 88% 0.00 in
05:40 27.7 °F 24.6 °F 30.21 in WSW 5.0 mph 8.0 mph 88% 0.00 in
05:45 27.6 °F 24.5 °F 30.21 in WSW 4.0 mph 9.0 mph 88% 0.00 in
05:50 27.5 °F 24.4 °F 30.22 in WSW 5.0 mph 9.0 mph 88% 0.00 in
05:55 27.6 °F 24.5 °F 30.23 in West 6.0 mph 11.0 mph 88% 0.00 in
06:00 27.8 °F 25.0 °F 30.23 in WSW 5.0 mph 11.0 mph 89% 0.00 in
06:05 27.9 °F 24.8 °F 30.23 in SW 8.0 mph 11.0 mph 88% 0.00 in
06:10 28.0 °F 24.9 °F 30.23 in WSW 4.0 mph 9.0 mph 88% 0.00 in
06:15 28.2 °F 25.1 °F 30.23 in SSW 6.0 mph 11.0 mph 88% 0.00 in
06:20 28.2 °F 25.1 °F 30.23 in SW 4.0 mph 10.0 mph 88% 0.00 in
06:25 28.3 °F 25.2 °F 30.23 in WSW 5.0 mph 10.0 mph 88% 0.00 in
06:30 28.3 °F 25.2 °F 30.24 in WSW 5.0 mph 12.0 mph 88% 0.00 in
06:35 28.3 °F 25.2 °F 30.24 in WSW 5.0 mph 13.0 mph 88% 0.00 in
06:40 28.3 °F 25.2 °F 30.25 in WSW 6.0 mph 13.0 mph 88% 0.00 in
06:44 28.5 °F 25.4 °F 30.26 in WSW 6.0 mph 13.0 mph 88% 0.00 in
06:49 28.5 °F 25.4 °F 30.26 in SW 10.0 mph 10.0 mph 88% 0.00 in
06:55 28.7 °F 25.6 °F 30.26 in SSW 7.0 mph 11.0 mph 88% 0.00 in
06:59 28.7 °F 25.6 °F 30.26 in WSW 7.0 mph 13.0 mph 88% 0.00 in
07:05 28.8 °F 25.7 °F 30.27 in WSW 7.0 mph 13.0 mph 88% 0.00 in
07:10 28.8 °F 25.7 °F 30.28 in WSW 7.0 mph 13.0 mph 88% 0.00 in
07:15 28.9 °F 25.8 °F 30.28 in WSW 10.0 mph 15.0 mph 88% 0.00 in
07:20 29.0 °F 25.9 °F 30.29 in WSW 5.0 mph 12.0 mph 88% 0.00 in
07:25 29.1 °F 26.0 °F 30.30 in WSW 7.0 mph 9.0 mph 88% 0.00 in
07:29 29.1 °F 26.0 °F 30.30 in WSW 6.0 mph 15.0 mph 88% 0.00 in
07:34 29.0 °F 25.9 °F 30.30 in WSW 8.0 mph 15.0 mph 88% 0.00 in
07:40 28.9 °F 25.8 °F 30.30 in WSW 8.0 mph 13.0 mph 88% 0.00 in
07:45 28.9 °F 25.8 °F 30.31 in WSW 7.0 mph 12.0 mph 88% 0.00 in
07:50 28.8 °F 25.7 °F 30.32 in WSW 7.0 mph 12.0 mph 88% 0.00 in
07:55 28.8 °F 25.7 °F 30.32 in WSW 7.0 mph 15.0 mph 88% 0.00 in
07:59 28.8 °F 25.7 °F 30.32 in South 6.0 mph 11.0 mph 88% 0.00 in
08:04 28.8 °F 25.7 °F 30.31 in WSW 6.0 mph 12.0 mph 88% 0.00 in
08:09 28.8 °F 25.4 °F 30.31 in SW 6.0 mph 12.0 mph 87% 0.00 in
08:14 28.8 °F 25.4 °F 30.32 in West 5.0 mph 11.0 mph 87% 0.00 in
08:20 28.8 °F 25.4 °F 30.32 in WSW 7.0 mph 11.0 mph 87% 0.00 in
08:25 29.0 °F 25.6 °F 30.33 in WSW 6.0 mph 12.0 mph 87% 0.00 in
08:30 29.1 °F 25.7 °F 30.33 in WSW 3.0 mph 10.0 mph 87% 0.00 in
08:35 29.1 °F 25.7 °F 30.34 in SW 7.0 mph 13.0 mph 87% 0.00 in
08:39 29.3 °F 25.9 °F 30.34 in WSW 6.0 mph 13.0 mph 87% 0.00 in
08:44 29.4 °F 26.0 °F 30.34 in WSW 6.0 mph 13.0 mph 87% 0.00 in
08:49 29.6 °F 26.2 °F 30.34 in WSW 5.0 mph 11.0 mph 87% 0.00 in
08:55 29.7 °F 26.0 °F 30.34 in SW 5.0 mph 11.0 mph 86% 0.00 in
09:00 29.8 °F 26.1 °F 30.34 in SW 5.0 mph 11.0 mph 86% 0.00 in
09:05 29.9 °F 26.2 °F 30.34 in WSW 5.0 mph 10.0 mph 86% 0.00 in
09:09 30.1 °F 26.1 °F 30.34 in WSW 3.0 mph 9.0 mph 85% 0.00 in
09:14 30.3 °F 26.3 °F 30.34 in WSW 5.0 mph 10.0 mph 85% 0.00 in
09:19 30.6 °F 26.3 °F 30.34 in WSW 7.0 mph 13.0 mph 84% 0.00 in
09:24 30.7 °F 26.4 °F 30.34 in WSW 4.0 mph 14.0 mph 84% 0.00 in
09:29 30.7 °F 26.1 °F 30.34 in WSW 10.0 mph 10.0 mph 83% 0.00 in
09:34 30.6 °F 26.1 °F 30.34 in SW 6.0 mph 11.0 mph 83% 0.00 in
09:40 30.6 °F 26.1 °F 30.34 in WSW 7.0 mph 13.0 mph 83% 0.00 in
09:45 30.6 °F 26.1 °F 30.34 in WSW 3.0 mph 9.0 mph 83% 0.00 in
09:54 30.6 °F 26.1 °F 30.34 in WSW 6.0 mph 12.0 mph 83% 0.00 in
10:00 30.7 °F 26.1 °F 30.34 in WSW 5.0 mph 9.0 mph 83% 0.00 in
10:05 30.6 °F 26.1 °F 30.35 in WSW 5.0 mph 10.0 mph 83% 0.00 in
10:10 30.6 °F 26.1 °F 30.35 in WSW 6.0 mph 10.0 mph 83% 0.00 in
10:14 30.7 °F 26.1 °F 30.35 in WSW 7.0 mph 10.0 mph 83% 0.00 in
10:19 30.8 °F 26.2 °F 30.34 in West 4.0 mph 10.0 mph 83% 0.00 in
10:24 31.0 °F 26.4 °F 30.35 in WSW 5.0 mph 10.0 mph 83% 0.00 in
10:29 31.0 °F 26.4 °F 30.36 in WSW 5.0 mph 10.0 mph 83% 0.00 in
10:34 30.9 °F 26.3 °F 30.36 in SW 5.0 mph 10.0 mph 83% 0.00 in
10:39 31.0 °F 26.4 °F 30.36 in WSW 4.0 mph 10.0 mph 83% 0.00 in
10:44 31.0 °F 26.1 °F 30.37 in WSW 4.0 mph 9.0 mph 82% 0.00 in
10:50 31.0 °F 26.1 °F 30.37 in WSW 8.0 mph 11.0 mph 82% 0.00 in
10:55 31.2 °F 26.0 °F 30.37 in WSW 4.0 mph 7.0 mph 81% 0.00 in
10:59 31.4 °F 26.2 °F 30.37 in WSW 4.0 mph 8.0 mph 81% 0.00 in
11:04 31.5 °F 26.3 °F 30.37 in WSW 4.0 mph 9.0 mph 81% 0.00 in
11:09 31.5 °F 26.3 °F 30.37 in WSW 5.0 mph 9.0 mph 81% 0.00 in
11:15 31.5 °F 26.0 °F 30.38 in WSW 5.0 mph 10.0 mph 80% 0.00 in
11:20 31.5 °F 26.0 °F 30.38 in WSW 5.0 mph 10.0 mph 80% 0.00 in
11:25 31.4 °F 25.9 °F 30.38 in WSW 6.0 mph 12.0 mph 80% 0.00 in
11:29 31.6 °F 26.1 °F 30.38 in West 4.0 mph 10.0 mph 80% 0.00 in
11:34 31.8 °F 26.0 °F 30.38 in WSW 6.0 mph 12.0 mph 79% 0.00 in
11:39 32.1 °F 26.3 °F 30.38 in WSW 6.0 mph 10.0 mph 79% 0.00 in
11:44 32.4 °F 26.3 °F 30.38 in West 7.0 mph 9.0 mph 78% 0.00 in
11:49 32.4 °F 26.0 °F 30.38 in West 7.0 mph 11.0 mph 77% 0.00 in
11:55 32.5 °F 26.1 °F 30.38 in WSW 4.0 mph 8.0 mph 77% 0.00 in
12:00 32.7 °F 26.0 °F 30.38 in West 7.0 mph 11.0 mph 76% 0.00 in
12:05 32.9 °F 26.2 °F 30.37 in WSW 3.0 mph 10.0 mph 76% 0.00 in
12:09 33.0 °F 25.9 °F 30.38 in WSW 6.0 mph 10.0 mph 75% 0.00 in
12:14 33.2 °F 26.1 °F 30.38 in WSW 5.0 mph 10.0 mph 75% 0.00 in
12:19 33.3 °F 25.6 °F 30.38 in WSW 5.0 mph 14.0 mph 73% 0.00 in
12:25 33.4 °F 25.7 °F 30.38 in WSW 6.0 mph 14.0 mph 73% 0.00 in
12:29 33.4 °F 25.3 °F 30.38 in West 3.0 mph 11.0 mph 72% 0.00 in
12:34 33.4 °F 25.3 °F 30.38 in WSW 5.0 mph 13.0 mph 72% 0.00 in
12:39 33.5 °F 25.1 °F 30.38 in West 4.0 mph 14.0 mph 71% 0.00 in
12:44 33.7 °F 25.3 °F 30.38 in WSW 6.0 mph 14.0 mph 71% 0.00 in
12:49 33.7 °F 25.0 °F 30.38 in WSW 8.0 mph 11.0 mph 70% 0.00 in
12:54 33.6 °F 25.2 °F 30.38 in SW 4.0 mph 11.0 mph 71% 0.00 in
12:59 33.8 °F 25.4 °F 30.37 in SW 2.0 mph 12.0 mph 71% 0.00 in
13:04 34.0 °F 25.6 °F 30.37 in SSW 6.0 mph 8.0 mph 71% 0.00 in
13:10 34.1 °F 25.7 °F 30.38 in WSW 9.0 mph 15.0 mph 71% 0.00 in
13:15 34.0 °F 25.6 °F 30.37 in WSW 5.0 mph 13.0 mph 71% 0.00 in
13:19 34.3 °F 25.5 °F 30.37 in WSW 6.0 mph 13.0 mph 70% 0.00 in
13:24 34.4 °F 25.6 °F 30.37 in WSW 5.0 mph 10.0 mph 70% 0.00 in
13:29 34.5 °F 25.0 °F 30.36 in WSW 7.0 mph 12.0 mph 68% 0.00 in
13:34 34.7 °F 25.6 °F 30.37 in WSW 8.0 mph 12.0 mph 69% 0.00 in
13:39 35.0 °F 26.2 °F 30.37 in SSW 4.0 mph 13.0 mph 70% 0.00 in
13:44 35.3 °F 26.1 °F 30.36 in SW 10.0 mph 12.0 mph 69% 0.00 in
13:49 35.0 °F 25.1 °F 30.36 in SW 7.0 mph 13.0 mph 67% 0.00 in
13:54 35.8 °F 25.9 °F 30.36 in SW 7.0 mph 14.0 mph 67% 0.00 in
13:59 35.6 °F 25.7 °F 30.36 in SW 8.0 mph 16.0 mph 67% 0.00 in
14:04 35.9 °F 26.0 °F 30.36 in SW 8.0 mph 16.0 mph 67% 0.00 in
14:09 35.8 °F 25.5 °F 30.36 in SW 8.0 mph 16.0 mph 66% 0.00 in
14:15 35.6 °F 25.0 °F 30.36 in SW 8.0 mph 16.0 mph 65% 0.00 in
14:20 35.3 °F 25.1 °F 30.36 in WSW 6.0 mph 12.0 mph 66% 0.00 in
14:24 34.9 °F 24.7 °F 30.35 in WSW 8.0 mph 13.0 mph 66% 0.00 in
14:29 34.4 °F 24.2 °F 30.36 in SW 8.0 mph 13.0 mph 66% 0.00 in
14:34 34.0 °F 23.8 °F 30.36 in South 2.0 mph 10.0 mph 66% 0.00 in
14:39 34.3 °F 24.1 °F 30.36 in SW 10.0 mph 11.0 mph 66% 0.00 in
14:49 34.6 °F 23.3 °F 30.37 in South 7.0 mph 12.0 mph 63% 0.00 in
14:54 35.3 °F 24.0 °F 30.36 in SW 6.0 mph 13.0 mph 63% 0.00 in
14:59 35.5 °F 23.8 °F 30.37 in SW 6.0 mph 13.0 mph 62% 0.00 in
15:04 35.4 °F 23.3 °F 30.37 in SW 6.0 mph 12.0 mph 61% 0.00 in
15:10 35.6 °F 23.5 °F 30.37 in South 6.0 mph 13.0 mph 61% 0.00 in
15:14 35.6 °F 23.5 °F 30.38 in SSW 6.0 mph 13.0 mph 61% 0.00 in
15:19 35.2 °F 23.1 °F 30.38 in SW 7.0 mph 13.0 mph 61% 0.00 in
15:24 35.3 °F 23.2 °F 30.38 in South 6.0 mph 12.0 mph 61% 0.00 in
15:30 35.3 °F 23.6 °F 30.38 in SW 5.0 mph 13.0 mph 62% 0.00 in
15:35 35.6 °F 23.5 °F 30.38 in SW 6.0 mph 13.0 mph 61% 0.00 in
15:40 35.1 °F 22.6 °F 30.38 in SW 5.0 mph 14.0 mph 60% 0.00 in
15:49 34.4 °F 22.7 °F 30.39 in WSW 5.0 mph 13.0 mph 62% 0.00 in
15:54 34.3 °F 23.0 °F 30.39 in South 4.0 mph 11.0 mph 63% 0.00 in
16:00 34.3 °F 23.0 °F 30.39 in SW 5.0 mph 12.0 mph 63% 0.00 in
16:05 34.2 °F 22.9 °F 30.39 in SW 5.0 mph 12.0 mph 63% 0.00 in
16:10 33.9 °F 22.6 °F 30.39 in SW 6.0 mph 11.0 mph 63% 0.00 in
16:14 34.0 °F 22.7 °F 30.39 in SW 6.0 mph 11.0 mph 63% 0.00 in
16:19 34.0 °F 23.1 °F 30.39 in SW 5.0 mph 11.0 mph 64% 0.00 in
16:24 33.7 °F 22.8 °F 30.39 in WSW 5.0 mph 9.0 mph 64% 0.00 in
16:29 33.4 °F 22.5 °F 30.40 in WSW 5.0 mph 10.0 mph 64% 0.00 in
16:34 33.3 °F 22.4 °F 30.40 in WSW 6.0 mph 11.0 mph 64% 0.00 in
16:39 33.3 °F 22.8 °F 30.41 in SW 8.0 mph 9.0 mph 65% 0.00 in
16:44 33.2 °F 22.7 °F 30.41 in WSW 5.0 mph 10.0 mph 65% 0.00 in
16:49 33.1 °F 22.6 °F 30.41 in WSW 5.0 mph 10.0 mph 65% 0.00 in
16:54 33.1 °F 22.6 °F 30.41 in SW 3.0 mph 7.0 mph 65% 0.00 in
16:59 33.0 °F 22.5 °F 30.41 in WSW 4.0 mph 9.0 mph 65% 0.00 in
17:04 32.9 °F 22.8 °F 30.42 in WSW 4.0 mph 7.0 mph 66% 0.00 in
17:09 32.9 °F 22.8 °F 30.41 in SSW 2.0 mph 7.0 mph 66% 0.00 in
17:14 32.8 °F 22.7 °F 30.41 in SW 3.0 mph 8.0 mph 66% 0.00 in
17:19 32.8 °F 23.0 °F 30.41 in SW 3.0 mph 8.0 mph 67% 0.00 in
17:24 32.7 °F 22.9 °F 30.42 in West 3.0 mph 6.0 mph 67% 0.00 in
17:29 32.7 °F 22.6 °F 30.42 in West 3.0 mph 6.0 mph 66% 0.00 in
17:34 32.5 °F 22.8 °F 30.42 in WSW 2.0 mph 5.0 mph 67% 0.00 in
17:39 32.4 °F 22.7 °F 30.42 in West 2.0 mph 6.0 mph 67% 0.00 in
17:44 32.1 °F 22.4 °F 30.42 in West 1.0 mph 3.0 mph 67% 0.00 in
17:49 31.9 °F 22.5 °F 30.42 in Calm   2.0 mph 68% 0.00 in
17:54 31.4 °F 22.4 °F 30.42 in Calm   2.0 mph 69% 0.00 in
17:59 31.0 °F 22.4 °F 30.42 in Calm     70% 0.00 in
18:09 30.5 °F 22.2 °F 30.42 in Calm     71% 0.00 in
18:14 30.2 °F 22.3 °F 30.42 in Calm     72% 0.00 in
18:19 30.0 °F 22.4 °F 30.42 in Calm     73% 0.00 in
18:24 29.8 °F 22.5 °F 30.42 in Calm     74% 0.00 in
18:29 29.6 °F 22.6 °F 30.42 in Calm     75% 0.00 in
18:34 29.4 °F 22.8 °F 30.42 in Calm     76% 0.00 in
18:39 29.3 °F 23.0 °F 30.42 in Calm     77% 0.00 in
18:44 29.2 °F 22.9 °F 30.41 in Calm     77% 0.00 in
18:49 28.9 °F 22.6 °F 30.41 in Calm     77% 0.00 in
18:54 28.8 °F 22.8 °F 30.41 in Calm     78% 0.00 in
18:59 28.9 °F 22.9 °F 30.41 in WSW 2.0 mph 4.0 mph 78% 0.00 in
19:04 29.2 °F 23.2 °F 30.41 in WSW 1.0 mph 4.0 mph 78% 0.00 in
19:09 29.3 °F 23.3 °F 30.41 in WSW 1.0 mph 3.0 mph 78% 0.00 in
19:14 29.4 °F 23.4 °F 30.40 in WSW 1.0 mph 3.0 mph 78% 0.00 in
19:19 29.2 °F 22.9 °F 30.41 in Calm   3.0 mph 77% 0.00 in
19:24 29.1 °F 23.1 °F 30.40 in Calm   2.0 mph 78% 0.00 in
19:29 29.1 °F 23.1 °F 30.40 in Calm   2.0 mph 78% 0.00 in
19:34 29.1 °F 23.1 °F 30.39 in Calm   3.0 mph 78% 0.00 in
19:39 29.0 °F 22.7 °F 30.39 in WSW 1.0 mph 2.0 mph 77% 0.00 in
19:44 29.0 °F 23.0 °F 30.39 in Calm   3.0 mph 78% 0.00 in
19:49 28.9 °F 22.6 °F 30.38 in Calm   3.0 mph 77% 0.00 in
19:54 28.7 °F 22.4 °F 30.38 in Calm   2.0 mph 77% 0.00 in
19:59 28.7 °F 22.7 °F 30.38 in SW 1.0 mph 4.0 mph 78% 0.00 in
20:04 28.6 °F 22.6 °F 30.37 in SW 1.0 mph 2.0 mph 78% 0.00 in
20:09 28.6 °F 22.6 °F 30.37 in SW 1.0 mph 3.0 mph 78% 0.00 in
20:14 28.5 °F 22.2 °F 30.37 in SW 1.0 mph 3.0 mph 77% 0.00 in
20:19 28.5 °F 22.2 °F 30.37 in SW 1.0 mph 3.0 mph 77% 0.00 in
20:24 28.6 °F 22.3 °F 30.37 in SW 1.0 mph 3.0 mph 77% 0.00 in
20:29 28.5 °F 22.2 °F 30.37 in Calm   2.0 mph 77% 0.00 in
20:34 28.5 °F 22.2 °F 30.36 in Calm   3.0 mph 77% 0.00 in
20:39 28.4 °F 22.1 °F 30.36 in SW 3.0 mph 3.0 mph 77% 0.00 in
20:44 28.4 °F 22.1 °F 30.36 in SW 1.0 mph 5.0 mph 77% 0.00 in
20:49 28.5 °F 22.2 °F 30.35 in South 3.0 mph 4.0 mph 77% 0.00 in
20:54 28.5 °F 22.2 °F 30.35 in South 3.0 mph 4.0 mph 77% 0.00 in
20:59 28.6 °F 22.3 °F 30.35 in SSE 1.0 mph 6.0 mph 77% 0.00 in
21:04 28.7 °F 22.4 °F 30.35 in SSE 1.0 mph 5.0 mph 77% 0.00 in
21:09 28.7 °F 22.1 °F 30.35 in SSE 2.0 mph 4.0 mph 76% 0.00 in
21:14 28.7 °F 22.1 °F 30.34 in SE 3.0 mph 7.0 mph 76% 0.00 in
21:19 28.8 °F 22.2 °F 30.34 in SE 2.0 mph 7.0 mph 76% 0.00 in
21:24 28.8 °F 22.2 °F 30.34 in SE 2.0 mph 6.0 mph 76% 0.00 in
21:29 28.8 °F 22.2 °F 30.34 in SE 2.0 mph 6.0 mph 76% 0.00 in
21:34 28.8 °F 22.2 °F 30.34 in SE 2.0 mph 6.0 mph 76% 0.00 in
21:39 28.7 °F 22.1 °F 30.34 in SE 2.0 mph 5.0 mph 76% 0.00 in
21:44 28.7 °F 22.1 °F 30.34 in SE 2.0 mph 4.0 mph 76% 0.00 in
21:49 28.6 °F 22.0 °F 30.33 in SE 2.0 mph 4.0 mph 76% 0.00 in
21:54 28.6 °F 22.3 °F 30.33 in SE 2.0 mph 5.0 mph 77% 0.00 in
21:59 28.6 °F 22.3 °F 30.33 in SE 2.0 mph 5.0 mph 77% 0.00 in
22:04 28.6 °F 22.3 °F 30.32 in SE 2.0 mph 3.0 mph 77% 0.00 in
22:09 28.5 °F 22.2 °F 30.31 in SE 1.0 mph 3.0 mph 77% 0.00 in
22:14 28.5 °F 22.2 °F 30.31 in ESE 1.0 mph 3.0 mph 77% 0.00 in
22:19 28.6 °F 22.3 °F 30.31 in SE 4.0 mph 4.0 mph 77% 0.00 in
22:24 28.7 °F 22.4 °F 30.31 in Calm   4.0 mph 77% 0.00 in
22:29 28.8 °F 22.5 °F 30.31 in SE 1.0 mph 4.0 mph 77% 0.00 in
22:34 29.0 °F 22.7 °F 30.30 in SE 1.0 mph 4.0 mph 77% 0.00 in
22:39 29.1 °F 22.8 °F 30.29 in SE 1.0 mph 4.0 mph 77% 0.00 in
22:44 29.1 °F 22.8 °F 30.29 in SE 1.0 mph 4.0 mph 77% 0.00 in
22:49 28.9 °F 22.6 °F 30.29 in Calm   2.0 mph 77% 0.00 in
22:54 28.8 °F 22.5 °F 30.28 in Calm   3.0 mph 77% 0.00 in
22:59 28.8 °F 22.5 °F 30.28 in Calm     77% 0.00 in
23:04 28.7 °F 22.4 °F 30.28 in Calm   1.0 mph 77% 0.00 in
23:09 28.7 °F 22.4 °F 30.28 in Calm   3.0 mph 77% 0.00 in
23:14 28.6 °F 22.3 °F 30.29 in Calm     77% 0.00 in
23:19 28.2 °F 21.9 °F 30.29 in Calm     77% 0.00 in
23:24 28.0 °F 21.7 °F 30.28 in Calm     77% 0.00 in
23:29 28.0 °F 22.0 °F 30.28 in Calm     78% 0.00 in
23:34 28.1 °F 22.1 °F 30.27 in Calm     78% 0.00 in
23:39 28.1 °F 22.1 °F 30.27 in Calm     78% 0.00 in
23:44 28.2 °F 22.2 °F 30.26 in Calm     78% 0.00 in
23:49 28.2 °F 22.2 °F 30.26 in Calm     78% 0.00 in
23:54 28.4 °F 22.7 °F 30.26 in Calm     79% 0.00 in
23:59 28.5 °F 22.5 °F 30.26 in Calm     78% 0.00 in
Buffalo, New York, USA
Compliments of Weather Underground - 2.5 mb